This is the latest recevied weather packets stored in our database for station/object DO0SOB-11. If no packets are shown the sender has not sent any weather packets the latest 10 day(s).
| Time | Temp. | Humidity | Pressure | Rain* | Wind** | Luminosity | Snow |
|---|---|---|---|---|---|---|---|
| 1777652971 | 21.11° C | 38% | 984.3 hPa | - | - | - | - |
| 1777652071 | 21.67° C | 40% | 984.4 hPa | - | - | - | - |
| 1777651171 | 22.22° C | 45% | 984.5 hPa | - | - | - | - |
| 1777650271 | 21.67° C | 41% | 984.7 hPa | - | - | - | - |
| 1777649371 | 21.67° C | 43% | 984.7 hPa | - | - | - | - |
| 1777648471 | 21.11° C | 41% | 985 hPa | - | - | - | - |
| 1777647571 | 21.11° C | 42% | 985.2 hPa | - | - | - | - |
| 1777646671 | 21.67° C | 47% | 985.3 hPa | - | - | - | - |
| 1777645771 | 21.67° C | 47% | 985.4 hPa | - | - | - | - |
| 1777644871 | 21.67° C | 43% | 985.5 hPa | - | - | - | - |
| 1777643970 | 22.22° C | 46% | 985.6 hPa | - | - | - | - |
| 1777643070 | 20.56° C | 45% | 985.8 hPa | - | - | - | - |
| 1777642170 | 20.56° C | 48% | 986 hPa | - | - | - | - |
| 1777641270 | 20.56° C | 44% | 986.2 hPa | - | - | - | - |
| 1777640370 | 20° C | 49% | 986.3 hPa | - | - | - | - |
| 1777639470 | 20.56° C | 47% | 986.7 hPa | - | - | - | - |
| 1777638570 | 20.56° C | 54% | 986.7 hPa | - | - | - | - |
| 1777637670 | 18.89° C | 44% | 986.9 hPa | - | - | - | - |
| 1777636770 | 19.44° C | 50% | 987.1 hPa | - | - | - | - |
| 1777635870 | 18.89° C | 46% | 987.1 hPa | - | - | - | - |
| 1777634970 | 19.44° C | 45% | 987.4 hPa | - | - | - | - |
| 1777634070 | 18.89° C | 42% | 987.5 hPa | - | - | - | - |
| 1777633170 | 18.33° C | 44% | 987.6 hPa | - | - | - | - |
| 1777632270 | 18.89° C | 47% | 987.7 hPa | - | - | - | - |
| 1777631370 | 18.33° C | 50% | 987.9 hPa | - | - | - | - |
* Rain since midnight (hover to see other rain measurements)
** Current wind speed in m/s (hover to see current wind gust speed)